createdAt,value
2023-03-26T00:00:32.840Z,1.63
2023-03-26T00:06:07.492Z,2.05
2023-03-26T00:11:13.153Z,1.40
2023-03-26T00:16:19.747Z,1.67
2023-03-26T00:21:28.312Z,2.72
2023-03-26T00:26:32.711Z,1.73
2023-03-26T00:31:37.961Z,2.20
2023-03-26T00:36:43.967Z,1.80
2023-03-26T00:41:47.409Z,2.70
2023-03-26T00:46:50.862Z,1.92
2023-03-26T00:51:55.597Z,2.10
2023-03-26T00:56:59.378Z,2.40
2023-03-26T01:02:04.161Z,2.00
2023-03-26T01:07:14.004Z,2.13
2023-03-26T01:12:22.273Z,1.98
2023-03-26T01:17:25.755Z,2.70
2023-03-26T01:22:31.541Z,2.40
2023-03-26T01:27:41.326Z,2.65
2023-03-26T01:32:55.610Z,1.75
2023-03-26T01:38:11.109Z,2.00
2023-03-26T01:43:28.490Z,2.17
2023-03-26T01:48:34.589Z,2.30
2023-03-26T01:53:42.628Z,2.13
2023-03-26T01:59:00.861Z,2.53
2023-03-26T02:04:12.368Z,2.65
2023-03-26T02:09:19.696Z,2.72
2023-03-26T02:14:24.462Z,2.20
2023-03-26T02:19:28.165Z,2.50
2023-03-26T02:24:32.259Z,3.17
2023-03-26T02:29:39.855Z,2.65
2023-03-26T02:34:43.986Z,2.45
2023-03-26T02:39:47.479Z,2.75
2023-03-26T02:44:52.264Z,2.58
2023-03-26T02:49:55.638Z,2.28
2023-03-26T02:54:59.170Z,2.70
2023-03-26T03:00:14.126Z,3.10
2023-03-26T03:05:18.131Z,3.00
2023-03-26T03:10:21.999Z,2.90
2023-03-26T03:15:27.313Z,2.95
2023-03-26T03:20:31.412Z,2.70
2023-03-26T03:25:35.125Z,2.28
2023-03-26T03:30:40.469Z,1.98
2023-03-26T03:35:45.969Z,2.30
2023-03-26T03:40:49.481Z,2.75
2023-03-26T03:45:54.776Z,2.28
2023-03-26T03:50:58.645Z,2.47
2023-03-26T03:56:02.269Z,2.13
2023-03-26T04:01:07.271Z,2.28
2023-03-26T04:06:11.176Z,1.77
2023-03-26T04:11:15.355Z,1.52
2023-03-26T04:16:20.815Z,1.60
2023-03-26T04:21:25.071Z,1.50
2023-03-26T04:26:31.546Z,1.10
2023-03-26T04:31:38.364Z,1.40
2023-03-26T04:36:42.746Z,1.13
2023-03-26T04:41:47.009Z,1.40
2023-03-26T04:46:53.019Z,1.00
2023-03-26T04:51:56.492Z,0.85
2023-03-26T04:57:03.882Z,1.10
2023-03-26T05:02:09.761Z,0.82
2023-03-26T05:07:18.421Z,1.63
2023-03-26T05:12:21.963Z,0.50
2023-03-26T05:17:30.900Z,0.68
2023-03-26T05:22:36.625Z,0.60
2023-03-26T05:27:41.246Z,0.47
2023-03-26T05:32:47.307Z,0.50
2023-03-26T05:37:51.537Z,0.60
2023-03-26T05:42:54.994Z,0.60
2023-03-26T05:48:00.023Z,0.80
2023-03-26T05:53:03.742Z,0.70
2023-03-26T05:58:07.282Z,0.68
2023-03-26T06:03:14.854Z,0.80
2023-03-26T06:08:19.496Z,1.00
2023-03-26T06:13:23.264Z,0.90
2023-03-26T06:18:28.150Z,1.10
2023-03-26T06:23:31.762Z,1.13
2023-03-26T06:28:36.108Z,0.98
2023-03-26T06:33:41.056Z,0.98
2023-03-26T06:38:45.297Z,1.00
2023-03-26T06:43:49.525Z,0.80
2023-03-26T06:48:54.362Z,0.98
2023-03-26T06:53:57.990Z,0.85
2023-03-26T06:59:01.842Z,0.95
2023-03-26T07:04:06.848Z,1.17
2023-03-26T07:09:10.383Z,0.88
2023-03-26T07:14:13.809Z,0.85
2023-03-26T07:19:18.664Z,0.90
2023-03-26T07:24:24.967Z,0.93
2023-03-26T07:29:36.226Z,0.90
2023-03-26T07:34:49.812Z,0.70
2023-03-26T07:39:58.693Z,0.75
2023-03-26T07:45:12.036Z,1.10
2023-03-26T07:50:19.991Z,1.33
2023-03-26T07:55:24.597Z,1.55
2023-03-26T08:00:34.566Z,1.20
2023-03-26T08:05:46.481Z,1.00
2023-03-26T08:11:01.849Z,2.28
2023-03-26T08:16:11.644Z,0.95
2023-03-26T08:21:21.015Z,1.58
2023-03-26T08:26:32.897Z,0.88
2023-03-26T08:31:39.758Z,1.30
2023-03-26T08:36:44.583Z,1.45
2023-03-26T08:42:23.020Z,1.02
2023-03-26T08:48:03.873Z,1.30
2023-03-26T08:53:43.122Z,1.20
2023-03-26T08:59:12.700Z,1.20
2023-03-26T09:04:48.125Z,1.13
2023-03-26T09:10:23.364Z,1.40
2023-03-26T09:15:58.816Z,1.42
2023-03-26T09:21:34.125Z,1.10
2023-03-26T09:26:48.299Z,1.17
2023-03-26T09:32:31.240Z,0.90
2023-03-26T09:37:56.236Z,0.93
2023-03-26T09:43:36.630Z,1.45
2023-03-26T09:49:09.431Z,1.73
2023-03-26T09:54:48.618Z,1.40
2023-03-26T10:00:16.675Z,1.40
2023-03-26T10:05:30.633Z,1.10
2023-03-26T10:10:41.930Z,1.20
2023-03-26T10:16:03.146Z,1.00
2023-03-26T10:21:17.117Z,1.02
2023-03-26T10:27:10.376Z,0.90
2023-03-26T10:32:22.705Z,0.95
2023-03-26T10:37:39.882Z,0.90
2023-03-26T10:43:12.765Z,0.90
2023-03-26T10:48:42.012Z,1.30
2023-03-26T10:53:50.746Z,1.00
2023-03-26T10:58:56.875Z,1.20
2023-03-26T11:04:09.967Z,1.50
2023-03-26T11:09:26.246Z,1.42
2023-03-26T11:14:35.393Z,1.27
2023-03-26T11:19:46.406Z,1.67
2023-03-26T11:25:20.860Z,1.20
2023-03-26T11:30:33.194Z,1.10
2023-03-26T11:35:41.565Z,1.20
2023-03-26T11:40:50.917Z,1.17
2023-03-26T11:45:54.787Z,1.42
2023-03-26T11:51:04.271Z,1.10
2023-03-26T11:56:15.144Z,1.40
2023-03-26T12:01:29.951Z,1.33
2023-03-26T12:06:34.545Z,1.08
2023-03-26T12:11:39.394Z,1.42
2023-03-26T12:17:00.685Z,1.70
2023-03-26T12:22:04.578Z,2.85
2023-03-26T12:27:25.879Z,1.95
2023-03-26T12:37:43.346Z,3.15
2023-03-26T12:44:48.415Z,2.70
2023-03-26T12:48:19.293Z,2.00
2023-03-26T12:53:37.651Z,2.47
2023-03-26T12:59:14.215Z,1.65
2023-03-26T13:05:04.393Z,2.00
2023-03-26T13:10:46.564Z,1.40
2023-03-26T13:15:53.696Z,1.52
2023-03-26T13:21:05.844Z,1.77
2023-03-26T13:26:19.979Z,1.58
2023-03-26T13:31:30.216Z,1.38
2023-03-26T13:36:46.610Z,1.40
2023-03-26T13:42:07.319Z,4.32
2023-03-26T13:47:16.431Z,1.60
2023-03-26T13:52:24.539Z,1.40
2023-03-26T13:57:33.385Z,1.70
2023-03-26T14:02:41.292Z,1.77
2023-03-26T14:07:48.094Z,1.70
2023-03-26T14:12:58.205Z,3.00
2023-03-26T14:18:23.971Z,1.92
2023-03-26T14:23:43.507Z,1.42
2023-03-26T14:29:10.858Z,2.40
2023-03-26T14:34:29.004Z,2.20
2023-03-26T14:40:08.016Z,2.15
2023-03-26T14:45:46.847Z,1.38
2023-03-26T14:51:03.054Z,1.83
2023-03-26T14:56:46.998Z,1.40
2023-03-26T15:02:38.888Z,1.80
2023-03-26T15:08:11.638Z,1.85
2023-03-26T15:13:44.363Z,2.00
2023-03-26T15:19:24.562Z,2.50
2023-03-26T15:25:01.170Z,2.10
2023-03-26T15:30:46.198Z,2.10
2023-03-26T15:36:14.975Z,2.08
2023-03-26T15:41:27.653Z,3.67
2023-03-26T15:46:36.015Z,2.63
2023-03-26T15:51:51.789Z,2.20
2023-03-26T15:57:21.902Z,0.80
2023-03-26T16:02:37.495Z,1.77
2023-03-26T16:07:52.298Z,1.60
2023-03-26T16:13:22.203Z,1.48
2023-03-26T16:18:34.277Z,2.08
2023-03-26T16:23:56.380Z,2.08
2023-03-26T16:29:23.971Z,1.65
2023-03-26T16:34:31.401Z,3.38
2023-03-26T16:39:43.696Z,4.18
2023-03-26T16:44:53.915Z,3.92
2023-03-26T16:50:12.131Z,13.50
2023-03-26T16:55:24.048Z,8.13
2023-03-26T17:00:43.341Z,6.32
2023-03-26T17:11:47.657Z,3.95
2023-03-26T17:17:09.657Z,4.15
2023-03-26T17:22:21.435Z,10.88
2023-03-26T17:27:34.723Z,8.27
2023-03-26T17:32:56.013Z,9.43
2023-03-26T17:37:59.638Z,8.52
2023-03-26T17:43:09.241Z,9.35
2023-03-26T17:48:20.677Z,15.07
2023-03-26T17:53:29.638Z,12.20
2023-03-26T17:58:37.562Z,9.43
2023-03-26T18:03:49.438Z,10.88
2023-03-26T18:09:12.015Z,9.18
2023-03-26T18:14:46.201Z,8.18
2023-03-26T18:25:00.189Z,6.75
2023-03-26T18:30:16.314Z,8.45
2023-03-26T18:35:21.733Z,5.85
2023-03-26T18:40:28.400Z,5.55
2023-03-26T18:45:35.582Z,6.45
2023-03-26T18:50:44.752Z,4.53
2023-03-26T18:55:50.781Z,2.30
2023-03-26T19:00:59.401Z,2.80
2023-03-26T19:06:04.765Z,3.72
2023-03-26T19:11:10.833Z,4.10
2023-03-26T19:16:22.260Z,3.80
2023-03-26T19:21:26.912Z,4.00
2023-03-26T19:26:30.657Z,4.10
2023-03-26T19:31:39.995Z,5.22
2023-03-26T19:36:57.361Z,4.72
2023-03-26T19:42:03.012Z,5.75
2023-03-26T19:47:16.207Z,6.00
2023-03-26T19:57:25.612Z,8.55
2023-03-26T20:02:30.676Z,5.38
2023-03-26T20:07:35.960Z,5.22
2023-03-26T20:12:39.790Z,5.07
2023-03-26T20:17:44.906Z,5.05
2023-03-26T20:22:49.925Z,4.90
2023-03-26T20:27:55.256Z,5.75
2023-03-26T20:33:11.934Z,6.28
2023-03-26T20:38:19.825Z,4.72
2023-03-26T20:43:25.122Z,5.70
2023-03-26T20:48:30.028Z,5.03
2023-03-26T20:53:33.428Z,5.03
2023-03-26T20:58:36.856Z,5.47
2023-03-26T21:03:42.381Z,6.47
2023-03-26T21:08:46.807Z,5.53
2023-03-26T21:13:57.138Z,6.32
2023-03-26T21:19:03.036Z,5.95
2023-03-26T21:24:13.094Z,6.18
2023-03-26T21:29:17.256Z,8.65
2023-03-26T21:34:22.886Z,9.25
2023-03-26T21:39:27.860Z,11.00
2023-03-26T21:44:34.602Z,9.88
2023-03-26T21:50:20.430Z,8.82
2023-03-26T21:55:25.343Z,7.93
2023-03-26T22:00:41.150Z,8.98
2023-03-26T22:05:53.326Z,15.82
2023-03-26T22:10:57.224Z,21.35
2023-03-26T22:16:00.899Z,11.70
2023-03-26T22:21:07.115Z,8.45
2023-03-26T22:26:10.575Z,7.55
2023-03-26T22:31:14.622Z,7.38
2023-03-26T22:36:23.275Z,5.80
2023-03-26T22:41:27.402Z,5.15
2023-03-26T22:46:31.260Z,5.35
2023-03-26T22:51:36.070Z,5.85
2023-03-26T22:56:39.755Z,5.90
2023-03-26T23:01:44.680Z,6.18
2023-03-26T23:06:49.487Z,5.85
2023-03-26T23:11:52.907Z,7.40
2023-03-26T23:16:57.247Z,5.30
2023-03-26T23:22:02.070Z,5.82
2023-03-26T23:27:06.957Z,5.40
2023-03-26T23:32:24.324Z,5.90
2023-03-26T23:37:34.896Z,6.65
2023-03-26T23:42:38.519Z,6.80
2023-03-26T23:47:42.563Z,6.18
2023-03-26T23:52:47.466Z,5.32
2023-03-26T23:57:50.910Z,6.43
